createdAt,value
2023-03-26T00:01:40.675Z,56.42
2023-03-26T00:04:09.213Z,60.09
2023-03-26T00:06:40.429Z,63.84
2023-03-26T00:09:13.617Z,64.32
2023-03-26T00:11:43.611Z,59.24
2023-03-26T00:14:14.227Z,52.75
2023-03-26T00:16:42.836Z,54.01
2023-03-26T00:19:13.012Z,54.48
2023-03-26T00:21:41.601Z,59.54
2023-03-26T00:24:16.408Z,59.86
2023-03-26T00:26:48.691Z,65.93
2023-03-26T00:29:17.022Z,68.52
2023-03-26T00:31:46.431Z,64.12
2023-03-26T00:34:18.712Z,56.93
2023-03-26T00:36:47.202Z,53.74
2023-03-26T00:39:15.411Z,57.59
2023-03-26T00:41:44.318Z,60.99
2023-03-26T00:44:12.125Z,64.41
2023-03-26T00:46:40.034Z,61.38
2023-03-26T00:49:11.160Z,57.59
2023-03-26T00:51:39.391Z,59.01
2023-03-26T00:54:09.065Z,60.33
2023-03-26T00:56:37.109Z,58.47
2023-03-26T00:59:05.060Z,61.29
2023-03-26T01:01:32.946Z,66.30
2023-03-26T01:04:24.398Z,70.59
2023-03-26T01:06:55.421Z,65.09
2023-03-26T01:09:42.977Z,60.02
2023-03-26T01:12:18.263Z,54.52
2023-03-26T01:14:50.585Z,54.60
2023-03-26T01:17:19.586Z,58.02
2023-03-26T01:20:13.261Z,59.47
2023-03-26T01:22:47.844Z,60.18
2023-03-26T01:25:16.130Z,65.28
2023-03-26T01:27:56.339Z,67.93
2023-03-26T01:30:43.381Z,63.52
2023-03-26T01:33:39.034Z,59.97
2023-03-26T01:36:42.865Z,53.59
2023-03-26T01:39:31.056Z,54.31
2023-03-26T01:42:11.874Z,57.09
2023-03-26T01:45:09.635Z,59.96
2023-03-26T01:47:41.200Z,66.13
2023-03-26T01:50:10.622Z,66.00
2023-03-26T01:52:38.990Z,64.05
2023-03-26T01:55:11.888Z,60.19
2023-03-26T01:58:13.787Z,53.87
2023-03-26T02:01:06.679Z,53.93
2023-03-26T02:03:47.121Z,57.96
2023-03-26T02:06:26.776Z,61.91
2023-03-26T02:09:08.847Z,64.88
2023-03-26T02:11:40.203Z,62.83
2023-03-26T02:14:09.850Z,54.52
2023-03-26T02:16:37.770Z,49.96
2023-03-26T02:19:05.618Z,51.06
2023-03-26T02:21:34.169Z,52.87
2023-03-26T02:24:05.199Z,55.56
2023-03-26T02:26:37.776Z,59.54
2023-03-26T02:29:05.836Z,63.78
2023-03-26T02:31:33.674Z,70.16
2023-03-26T02:34:02.077Z,67.30
2023-03-26T02:36:30.563Z,60.28
2023-03-26T02:39:00.310Z,54.17
2023-03-26T02:41:28.234Z,54.96
2023-03-26T02:43:55.984Z,58.98
2023-03-26T02:46:24.025Z,59.82
2023-03-26T02:48:52.059Z,62.84
2023-03-26T02:51:20.423Z,66.27
2023-03-26T02:53:48.167Z,63.56
2023-03-26T02:56:16.163Z,62.08
2023-03-26T02:58:43.907Z,58.47
2023-03-26T03:01:11.914Z,52.85
2023-03-26T03:03:40.715Z,55.65
2023-03-26T03:06:09.155Z,59.57
2023-03-26T03:08:36.970Z,62.65
2023-03-26T03:11:14.858Z,63.49
2023-03-26T03:13:44.756Z,61.05
2023-03-26T03:16:12.593Z,57.74
2023-03-26T03:18:40.510Z,52.15
2023-03-26T03:21:08.611Z,52.48
2023-03-26T03:23:36.962Z,54.43
2023-03-26T03:26:06.804Z,55.11
2023-03-26T03:28:34.557Z,56.20
2023-03-26T03:31:02.481Z,57.48
2023-03-26T03:33:30.662Z,59.03
2023-03-26T03:35:59.409Z,59.10
2023-03-26T03:38:27.275Z,60.04
2023-03-26T03:40:55.801Z,61.87
2023-03-26T03:43:23.668Z,69.12
2023-03-26T03:45:51.788Z,74.05
2023-03-26T03:48:19.921Z,65.76
2023-03-26T03:50:47.976Z,59.16
2023-03-26T03:53:16.382Z,53.39
2023-03-26T03:55:53.258Z,53.36
2023-03-26T03:58:28.464Z,54.82
2023-03-26T04:01:01.025Z,56.83
2023-03-26T04:03:33.427Z,58.27
2023-03-26T04:06:02.329Z,58.33
2023-03-26T04:08:30.379Z,57.94
2023-03-26T04:10:58.790Z,59.90
2023-03-26T04:13:26.774Z,61.06
2023-03-26T04:15:54.819Z,67.11
2023-03-26T04:18:23.426Z,73.94
2023-03-26T04:20:51.544Z,68.78
2023-03-26T04:23:19.870Z,61.69
2023-03-26T04:25:55.894Z,53.92
2023-03-26T04:28:42.425Z,52.14
2023-03-26T04:31:15.927Z,53.33
2023-03-26T04:33:47.454Z,54.79
2023-03-26T04:36:16.944Z,56.00
2023-03-26T04:38:52.126Z,58.18
2023-03-26T04:41:20.249Z,60.08
2023-03-26T04:43:50.604Z,67.19
2023-03-26T04:46:23.727Z,71.97
2023-03-26T04:48:53.887Z,65.35
2023-03-26T04:51:30.785Z,58.97
2023-03-26T04:54:00.504Z,52.18
2023-03-26T04:56:59.598Z,51.72
2023-03-26T04:59:34.699Z,53.77
2023-03-26T05:02:06.096Z,55.30
2023-03-26T05:04:36.998Z,56.94
2023-03-26T05:07:05.448Z,58.60
2023-03-26T05:09:33.277Z,60.33
2023-03-26T05:12:01.127Z,66.71
2023-03-26T05:14:28.950Z,73.79
2023-03-26T05:16:57.497Z,68.23
2023-03-26T05:19:25.320Z,62.20
2023-03-26T05:21:53.173Z,54.70
2023-03-26T05:24:21.444Z,50.62
2023-03-26T05:26:49.235Z,51.87
2023-03-26T05:29:18.335Z,53.29
2023-03-26T05:31:48.769Z,59.00
2023-03-26T05:34:16.705Z,58.04
2023-03-26T05:36:44.538Z,58.98
2023-03-26T05:39:14.334Z,59.88
2023-03-26T05:41:42.108Z,60.11
2023-03-26T05:44:10.441Z,60.35
2023-03-26T05:46:39.253Z,60.92
2023-03-26T05:49:06.985Z,68.26
2023-03-26T05:51:34.786Z,73.80
2023-03-26T05:54:02.740Z,65.52
2023-03-26T05:56:30.710Z,54.24
2023-03-26T05:58:58.506Z,51.42
2023-03-26T06:01:26.476Z,51.77
2023-03-26T06:03:54.321Z,53.12
2023-03-26T06:06:22.435Z,53.44
2023-03-26T06:09:01.535Z,55.16
2023-03-26T06:11:34.257Z,57.18
2023-03-26T06:14:02.571Z,60.22
2023-03-26T06:16:30.882Z,66.04
2023-03-26T06:18:59.037Z,70.66
2023-03-26T06:21:28.593Z,63.91
2023-03-26T06:23:56.835Z,53.65
2023-03-26T06:26:24.738Z,49.36
2023-03-26T06:28:52.592Z,53.69
2023-03-26T06:31:20.859Z,57.19
2023-03-26T06:33:48.885Z,56.16
2023-03-26T06:36:17.291Z,60.07
2023-03-26T06:38:45.445Z,59.99
2023-03-26T06:41:13.694Z,60.08
2023-03-26T06:43:41.592Z,66.64
2023-03-26T06:46:09.922Z,69.92
2023-03-26T06:48:39.334Z,64.48
2023-03-26T06:51:08.564Z,49.56
2023-03-26T06:53:36.451Z,46.25
2023-03-26T06:56:04.920Z,47.05
2023-03-26T06:58:33.476Z,48.00
2023-03-26T07:01:01.688Z,49.94
2023-03-26T07:03:29.864Z,55.12
2023-03-26T07:05:57.751Z,54.16
2023-03-26T07:08:26.508Z,57.90
2023-03-26T07:10:54.582Z,55.99
2023-03-26T07:13:23.074Z,55.08
2023-03-26T07:15:52.381Z,61.17
2023-03-26T07:18:20.667Z,68.33
2023-03-26T07:20:49.094Z,63.81
2023-03-26T07:23:20.940Z,55.26
2023-03-26T07:25:52.891Z,50.88
2023-03-26T07:29:04.429Z,50.95
2023-03-26T07:31:51.285Z,51.54
2023-03-26T07:34:57.046Z,53.82
2023-03-26T07:38:04.847Z,54.44
2023-03-26T07:40:55.736Z,52.82
2023-03-26T07:43:54.933Z,56.42
2023-03-26T07:46:31.996Z,56.96
2023-03-26T07:49:01.920Z,54.94
2023-03-26T07:51:31.156Z,54.53
2023-03-26T07:54:00.724Z,55.40
2023-03-26T07:57:02.155Z,55.98
2023-03-26T07:59:51.781Z,55.53
2023-03-26T08:02:38.228Z,59.41
2023-03-26T08:05:19.070Z,61.72
2023-03-26T08:08:08.307Z,58.09
2023-03-26T08:10:55.118Z,57.72
2023-03-26T08:13:34.745Z,57.72
2023-03-26T08:16:19.305Z,56.55
2023-03-26T08:19:11.250Z,58.02
2023-03-26T08:21:55.985Z,58.91
2023-03-26T08:25:04.261Z,57.94
2023-03-26T08:27:56.447Z,64.47
2023-03-26T08:30:27.606Z,67.60
2023-03-26T08:33:20.744Z,52.31
2023-03-26T08:35:50.128Z,46.35
2023-03-26T08:38:20.833Z,47.15
2023-03-26T08:41:15.026Z,47.58
2023-03-26T08:44:20.060Z,47.80
2023-03-26T08:47:22.438Z,53.49
2023-03-26T08:50:18.400Z,56.25
2023-03-26T08:53:01.338Z,56.49
2023-03-26T08:55:53.747Z,57.15
2023-03-26T08:58:36.673Z,57.37
2023-03-26T09:01:30.092Z,57.20
2023-03-26T09:04:32.453Z,56.95
2023-03-26T09:07:25.865Z,57.15
2023-03-26T09:10:19.478Z,55.81
2023-03-26T09:13:35.762Z,56.82
2023-03-26T09:16:44.739Z,57.46
2023-03-26T09:19:58.201Z,57.05
2023-03-26T09:22:38.297Z,57.27
2023-03-26T09:25:24.458Z,57.08
2023-03-26T09:28:50.692Z,56.73
2023-03-26T09:31:43.660Z,57.12
2023-03-26T09:34:42.548Z,56.89
2023-03-26T09:37:56.741Z,57.36
2023-03-26T09:40:38.843Z,58.38
2023-03-26T09:43:59.650Z,58.02
2023-03-26T09:47:07.458Z,57.93
2023-03-26T09:49:58.826Z,57.73
2023-03-26T09:53:01.957Z,56.73
2023-03-26T09:56:04.787Z,57.19
2023-03-26T09:59:02.019Z,57.31
2023-03-26T10:02:09.853Z,57.65
2023-03-26T10:04:55.838Z,56.50
2023-03-26T10:07:58.865Z,54.65
2023-03-26T10:10:47.194Z,55.74
2023-03-26T10:13:40.984Z,53.18
2023-03-26T10:16:33.668Z,53.07
2023-03-26T10:19:37.847Z,53.09
2023-03-26T10:22:34.944Z,53.21
2023-03-26T10:25:33.201Z,52.68
2023-03-26T10:28:59.691Z,52.42
2023-03-26T10:31:59.088Z,53.83
2023-03-26T10:35:02.498Z,53.80
2023-03-26T10:37:40.909Z,52.02
2023-03-26T10:40:56.347Z,53.75
2023-03-26T10:44:07.450Z,51.83
2023-03-26T10:46:50.346Z,52.54
2023-03-26T10:49:50.653Z,52.39
2023-03-26T10:52:49.484Z,53.07
2023-03-26T10:55:25.640Z,52.25
2023-03-26T10:58:09.359Z,52.88
2023-03-26T11:00:42.976Z,52.25
2023-03-26T11:03:51.976Z,52.24
2023-03-26T11:06:55.399Z,50.90
2023-03-26T11:09:54.231Z,52.13
2023-03-26T13:24:48.736Z,39.29
2023-03-26T13:27:40.580Z,40.34
2023-03-26T13:30:25.752Z,40.60
2023-03-26T13:33:20.980Z,41.06
2023-03-26T13:36:18.982Z,41.27
2023-03-26T13:39:17.353Z,41.05
2023-03-26T13:42:09.975Z,39.18
2023-03-26T13:45:33.256Z,37.57
2023-03-26T13:48:06.567Z,40.00
2023-03-26T13:50:46.804Z,40.10
2023-03-26T13:53:25.202Z,38.20
2023-03-26T13:55:59.235Z,39.38
2023-03-26T13:58:47.497Z,39.65
2023-03-26T14:01:34.310Z,40.19
2023-03-26T14:04:26.256Z,40.71
2023-03-26T14:07:07.650Z,41.42
2023-03-26T14:09:45.051Z,41.33
2023-03-26T14:12:24.266Z,41.13
2023-03-26T14:15:31.021Z,41.46
2023-03-26T14:18:21.553Z,41.09
2023-03-26T14:21:14.172Z,41.41
2023-03-26T14:24:41.859Z,41.82
2023-03-26T14:27:19.809Z,42.05
2023-03-26T14:30:19.255Z,41.27
2023-03-26T14:33:27.773Z,42.26
2023-03-26T14:36:26.015Z,41.75
2023-03-26T14:39:14.234Z,42.05
2023-03-26T14:41:58.433Z,42.13
2023-03-26T14:45:09.259Z,42.87
2023-03-26T14:48:24.898Z,42.01
2023-03-26T14:51:40.650Z,42.61
2023-03-26T14:54:15.099Z,42.50
2023-03-26T14:56:47.678Z,42.29
2023-03-26T14:59:49.128Z,42.17
2023-03-26T15:02:54.134Z,41.81
2023-03-26T15:05:52.660Z,40.34
2023-03-26T15:08:59.248Z,40.82
2023-03-26T15:12:12.758Z,41.72
2023-03-26T15:15:30.139Z,41.96
2023-03-26T15:18:20.944Z,42.30
2023-03-26T15:21:06.318Z,41.51
2023-03-26T15:24:09.223Z,41.15
2023-03-26T15:27:13.843Z,41.90
2023-03-26T15:30:29.039Z,42.34
2023-03-26T15:33:39.695Z,40.82
2023-03-26T15:36:50.290Z,41.32
2023-03-26T15:40:13.008Z,40.34
2023-03-26T15:42:57.289Z,41.20
2023-03-26T15:45:38.017Z,39.97
2023-03-26T15:48:21.227Z,39.97
2023-03-26T15:51:26.119Z,39.31
2023-03-26T15:54:18.558Z,39.62
2023-03-26T15:57:17.816Z,40.05
2023-03-26T16:00:25.323Z,40.88
2023-03-26T16:08:52.460Z,40.30
2023-03-26T16:11:58.078Z,39.25
2023-03-26T16:14:34.022Z,40.12
2023-03-26T16:17:09.220Z,39.33
2023-03-26T16:20:13.574Z,39.74
2023-03-26T16:23:05.313Z,39.20
2023-03-26T16:25:35.249Z,39.50
2023-03-26T16:28:38.159Z,39.78
2023-03-26T16:31:36.425Z,39.31
2023-03-26T16:34:25.549Z,40.87
2023-03-26T16:36:53.970Z,40.79
2023-03-26T16:39:37.970Z,39.99
2023-03-26T16:42:32.441Z,40.08
2023-03-26T16:45:17.671Z,41.72
2023-03-26T16:48:23.184Z,42.22
2023-03-26T16:51:10.835Z,41.77
2023-03-26T16:54:08.984Z,43.24
2023-03-26T16:57:25.455Z,42.05
2023-03-26T17:00:30.894Z,41.91
2023-03-26T17:03:31.255Z,42.29
2023-03-26T17:06:13.882Z,43.79
2023-03-26T17:09:00.638Z,45.43
2023-03-26T17:11:48.260Z,45.86
2023-03-26T17:14:48.279Z,46.16
2023-03-26T17:17:38.319Z,46.46
2023-03-26T17:20:51.461Z,47.40
2023-03-26T17:23:44.308Z,47.47
2023-03-26T17:26:50.408Z,48.13
2023-03-26T17:30:05.388Z,48.34
2023-03-26T17:33:06.729Z,48.60
2023-03-26T17:36:10.983Z,48.63
2023-03-26T17:38:39.461Z,49.46
2023-03-26T17:41:15.440Z,50.47
2023-03-26T17:43:56.078Z,51.23
2023-03-26T17:46:42.685Z,52.15
2023-03-26T17:49:19.751Z,52.71
2023-03-26T17:52:49.297Z,53.80
2023-03-26T17:55:29.925Z,54.00
2023-03-26T17:58:02.907Z,54.98
2023-03-26T18:01:01.717Z,55.39
2023-03-26T18:03:38.777Z,55.13
2023-03-26T18:06:17.657Z,55.60
2023-03-26T18:09:22.574Z,55.78
2023-03-26T18:12:13.301Z,56.75
2023-03-26T18:15:01.738Z,56.46
2023-03-26T18:17:42.282Z,57.69
2023-03-26T18:20:28.856Z,57.81
2023-03-26T18:22:56.816Z,58.65
2023-03-26T18:25:33.124Z,59.22
2023-03-26T18:28:01.853Z,60.15
2023-03-26T18:30:29.361Z,59.49
2023-03-26T18:33:15.245Z,59.72
2023-03-26T18:35:53.826Z,59.95
2023-03-26T18:38:35.056Z,59.38
2023-03-26T18:41:16.484Z,59.61
2023-03-26T18:43:44.534Z,60.53
2023-03-26T18:46:16.787Z,60.90
2023-03-26T18:48:45.689Z,61.10
2023-03-26T18:51:12.801Z,61.27
2023-03-26T18:54:02.350Z,60.95
2023-03-26T18:56:39.645Z,60.83
2023-03-26T18:59:31.583Z,61.19
2023-03-26T19:02:14.105Z,61.70
2023-03-26T19:04:46.045Z,61.77
2023-03-26T19:07:20.267Z,70.19
2023-03-26T19:09:48.564Z,77.73
2023-03-26T19:12:23.147Z,66.07
2023-03-26T19:15:14.497Z,53.81
2023-03-26T19:17:52.754Z,48.81
2023-03-26T19:20:31.288Z,49.25
2023-03-26T19:22:59.948Z,50.52
2023-03-26T19:25:40.134Z,51.98
2023-03-26T19:28:18.607Z,52.26
2023-03-26T19:30:52.351Z,54.83
2023-03-26T19:33:23.710Z,55.47
2023-03-26T19:36:15.496Z,54.89
2023-03-26T19:39:21.674Z,56.73
2023-03-26T19:41:54.617Z,57.60
2023-03-26T19:44:25.226Z,58.61
2023-03-26T19:46:54.004Z,57.99
2023-03-26T19:49:32.501Z,59.85
2023-03-26T19:52:19.419Z,60.01
2023-03-26T19:55:17.286Z,60.19
2023-03-26T19:57:45.170Z,60.33
2023-03-26T20:00:13.890Z,60.78
2023-03-26T20:02:46.556Z,61.07
2023-03-26T20:05:26.506Z,61.28
2023-03-26T20:08:00.213Z,67.39
2023-03-26T20:10:27.484Z,75.65
2023-03-26T20:12:54.202Z,66.92
2023-03-26T20:15:29.957Z,59.16
2023-03-26T20:17:57.056Z,49.39
2023-03-26T20:20:27.148Z,47.82
2023-03-26T20:22:54.341Z,49.26
2023-03-26T20:25:31.502Z,49.93
2023-03-26T20:27:59.228Z,51.86
2023-03-26T20:30:37.371Z,53.99
2023-03-26T20:33:11.804Z,57.56
2023-03-26T20:35:40.868Z,57.61
2023-03-26T20:38:08.820Z,57.64
2023-03-26T20:40:35.476Z,59.33
2023-03-26T20:43:03.576Z,59.36
2023-03-26T20:45:32.473Z,58.93
2023-03-26T20:48:02.042Z,59.26
2023-03-26T20:50:31.626Z,60.08
2023-03-26T20:53:00.506Z,59.99
2023-03-26T20:55:28.182Z,59.73
2023-03-26T20:57:57.797Z,59.93
2023-03-26T21:00:26.016Z,59.85
2023-03-26T21:02:56.421Z,60.52
2023-03-26T21:05:28.057Z,60.97
2023-03-26T21:08:00.231Z,61.61
2023-03-26T21:10:31.866Z,67.32
2023-03-26T21:13:07.656Z,78.07
2023-03-26T21:15:36.541Z,66.12
2023-03-26T21:18:03.528Z,53.13
2023-03-26T21:20:32.356Z,48.42
2023-03-26T21:23:05.185Z,49.08
2023-03-26T21:25:56.553Z,50.85
2023-03-26T21:28:46.110Z,54.42
2023-03-26T21:31:23.464Z,54.76
2023-03-26T21:33:53.656Z,56.93
2023-03-26T21:36:21.859Z,58.52
2023-03-26T21:38:50.053Z,59.82
2023-03-26T21:41:22.937Z,59.00
2023-03-26T21:43:50.913Z,57.89
2023-03-26T21:46:18.709Z,57.91
2023-03-26T21:48:46.380Z,57.88
2023-03-26T21:51:17.128Z,57.72
2023-03-26T21:53:45.070Z,58.45
2023-03-26T21:56:25.474Z,58.94
2023-03-26T21:59:10.944Z,59.32
2023-03-26T22:02:19.018Z,59.70
2023-03-26T22:05:03.104Z,59.83
2023-03-26T22:07:48.570Z,60.20
2023-03-26T22:10:16.628Z,60.42
2023-03-26T22:12:43.120Z,60.84
2023-03-26T22:15:14.934Z,61.51
2023-03-26T22:17:42.122Z,65.10
2023-03-26T22:20:11.916Z,65.39
2023-03-26T22:22:42.658Z,66.60
2023-03-26T22:25:10.271Z,58.34
2023-03-26T22:27:44.138Z,52.68
2023-03-26T22:30:15.118Z,51.81
2023-03-26T22:32:42.952Z,53.16
2023-03-26T22:35:09.928Z,53.38
2023-03-26T22:37:37.407Z,53.12
2023-03-26T22:40:15.873Z,53.68
2023-03-26T22:42:43.525Z,55.91
2023-03-26T22:45:11.167Z,60.91
2023-03-26T22:47:41.765Z,65.53
2023-03-26T22:50:10.320Z,65.48
2023-03-26T22:52:40.023Z,65.40
2023-03-26T22:55:08.965Z,55.22
2023-03-26T22:57:35.444Z,49.29
2023-03-26T23:00:12.998Z,49.71
2023-03-26T23:02:44.547Z,51.93
2023-03-26T23:05:13.883Z,54.14
2023-03-26T23:07:47.264Z,55.36
2023-03-26T23:10:14.098Z,56.28
2023-03-26T23:12:41.156Z,57.04
2023-03-26T23:15:09.130Z,58.63
2023-03-26T23:17:39.658Z,58.99
2023-03-26T23:20:16.502Z,58.92
2023-03-26T23:22:43.557Z,61.43
2023-03-26T23:25:11.565Z,65.45
2023-03-26T23:27:40.995Z,70.90
2023-03-26T23:30:10.138Z,66.81
2023-03-26T23:32:38.295Z,60.98
2023-03-26T23:35:05.592Z,49.01
2023-03-26T23:37:34.350Z,44.38
2023-03-26T23:40:09.224Z,45.78
2023-03-26T23:42:38.564Z,47.10
2023-03-26T23:45:08.132Z,49.61
2023-03-26T23:47:35.052Z,51.69
2023-03-26T23:50:03.402Z,53.29
2023-03-26T23:52:31.119Z,55.74
2023-03-26T23:55:01.297Z,56.97
2023-03-26T23:57:28.421Z,59.37
2023-03-26T23:59:54.894Z,61.49
